Terminal Aerodrome Forecast
Issued by NWS Burlington, VT

Home | Current Version | Previous Version | Text Only | Print | Product List | Glossary On
Versions: 1 2 3 4 5 6 7 8 9 10 11 12 13 14 15 16 17
000
FTUS41 KBTV 282339
TAFBTV
TAF
KBTV 282339Z 2900/2924 19014G20KT P6SM VCTS BKN060CB BKN200
     FM290200 20010KT P6SM SCT050 BKN100 BKN250
     FM290600 22009KT P6SM SCT050 BKN100 BKN250
     FM291000 30012KT P6SM SCT050 BKN100
     FM291400 33014G20KT P6SM BKN045=

USA.gov is the U.S. government's official web portal to all federal, state and local government web resources and services.